Time;durP1;ratioP1;P1;durP2;ratioP2;P2;SDS_P1;SDS_P2;PMS_P1;PMS_P2;Temp;Humidity;BMP_temperature;BMP_pressure;BME280_temperature;BME280_humidity;BME280_pressure;Samples;Min_cycle;Max_cycle;Signal;HPM_P1;HPM_P2
2021/12/22 00:00:40;;;;;;;28.92;13.15;;;;;;;;;;4918679;29;20385;-79
2021/12/22 00:03:08;;;;;;;52.67;22.55;;;;;;;;;;4911661;29;20040;-76
2021/12/22 00:05:44;;;;;;;46.15;19.10;;;;;;;;;;4915914;29;20005;-85
2021/12/22 00:08:12;;;;;;;44.15;17.45;;;;;;;;;;4907041;29;20054;-75
2021/12/22 00:10:39;;;;;;;30.83;12.80;;;;;;;;;;4909953;29;20035;-78
2021/12/22 00:13:14;;;;;;;26.00;10.68;;;;;;;;;;4907173;29;20076;-76
2021/12/22 00:15:40;;;;;;;54.72;22.80;;;;;;;;;;4906396;29;20447;-78
2021/12/22 00:18:06;;;;;;;50.33;19.92;;;;;;;;;;4897222;29;20073;-77
2021/12/22 00:20:32;;;;;;;120.57;47.55;;;;;;;;;;4913184;29;20031;-76
2021/12/22 00:22:58;;;;;;;96.88;39.72;;;;;;;;;;4919831;29;20017;-81
2021/12/22 00:25:28;;;;;;;52.67;27.50;;;;;;;;;;4919430;29;20037;-75
2021/12/22 00:27:57;;;;;;;41.83;21.27;;;;;;;;;;4885602;29;20037;-76
2021/12/22 00:30:26;;;;;;;45.08;20.55;;;;;;;;;;4908466;29;20092;-76
2021/12/22 00:32:56;;;;;;;59.95;25.30;;;;;;;;;;4916934;29;20052;-76
2021/12/22 00:35:42;;;;;;;47.47;18.73;;;;;;;;;;4914899;29;20024;-76
2021/12/22 00:38:13;;;;;;;37.75;16.95;;;;;;;;;;4908964;29;20025;-76
2021/12/22 00:40:41;;;;;;;33.60;16.25;;;;;;;;;;4910864;29;20064;-76
2021/12/22 00:43:08;;;;;;;31.83;16.48;;;;;;;;;;4907270;29;20100;-77
2021/12/22 00:45:35;;;;;;;21.77;12.15;;;;;;;;;;4905815;29;20111;-76
2021/12/22 00:48:09;;;;;;;14.52;8.65;;;;;;;;;;4917319;29;20036;-76
2021/12/22 00:50:37;;;;;;;13.50;7.85;;;;;;;;;;4916236;29;20036;-76
2021/12/22 00:53:03;;;;;;;14.50;7.97;;;;;;;;;;4894601;29;20033;-77
2021/12/22 00:55:37;;;;;;;7.40;5.47;;;;;;;;;;4906550;29;20033;-76
2021/12/22 00:58:04;;;;;;;6.35;4.65;;;;;;;;;;4911945;29;20036;-75
2021/12/22 01:00:31;;;;;;;8.05;4.70;;;;;;;;;;4913003;29;20032;-77
2021/12/22 01:02:58;;;;;;;7.72;4.97;;;;;;;;;;4901799;29;20160;-76
2021/12/22 01:05:25;;;;;;;7.63;5.20;;;;;;;;;;4905537;29;20032;-85
2021/12/22 01:07:51;;;;;;;12.00;6.00;;;;;;;;;;4888610;29;20087;-77
2021/12/22 01:10:36;;;;;;;15.25;9.05;;;;;;;;;;4898555;29;20028;-81
2021/12/22 01:13:05;;;;;;;12.05;7.00;;;;;;;;;;4915279;29;20013;-81
2021/12/22 01:15:51;;;;;;;10.85;6.80;;;;;;;;;;4912006;29;20076;-85
2021/12/22 01:18:28;;;;;;;14.82;8.95;;;;;;;;;;4913522;29;20431;-77
2021/12/22 01:23:21;;;;;;;11.32;7.68;;;;;;;;;;4906467;29;20045;-76
2021/12/22 01:25:48;;;;;;;13.18;7.78;;;;;;;;;;4909981;29;20036;-81
2021/12/22 01:28:16;;;;;;;15.23;9.35;;;;;;;;;;4917547;29;20467;-78
2021/12/22 01:30:46;;;;;;;12.93;8.23;;;;;;;;;;4913943;29;20056;-82
2021/12/22 01:33:13;;;;;;;16.27;9.32;;;;;;;;;;4917108;29;20060;-80
2021/12/22 01:35:39;;;;;;;19.60;9.90;;;;;;;;;;4912963;29;20495;-83
2021/12/22 01:38:07;;;;;;;16.08;9.40;;;;;;;;;;4909573;29;20033;-76
2021/12/22 01:40:35;;;;;;;12.95;7.97;;;;;;;;;;4904560;29;20032;-76
2021/12/22 01:43:05;;;;;;;10.18;6.60;;;;;;;;;;4906423;29;20035;-76
2021/12/22 01:51:05;;;;;;;10.88;5.97;;;;;;;;;;4918944;29;20131;-76
2021/12/22 01:53:35;;;;;;;6.72;4.82;;;;;;;;;;4918812;29;20009;-76
2021/12/22 01:56:16;;;;;;;7.82;4.50;;;;;;;;;;4910193;29;20041;-78
2021/12/22 01:58:44;;;;;;;7.32;4.50;;;;;;;;;;4893997;29;20386;-76
2021/12/22 02:01:10;;;;;;;7.18;4.95;;;;;;;;;;4913018;29;20037;-78
2021/12/22 02:03:40;;;;;;;7.90;5.30;;;;;;;;;;4911391;29;20032;-76
2021/12/22 02:06:08;;;;;;;12.18;7.38;;;;;;;;;;4905195;29;20028;-76
2021/12/22 02:08:55;;;;;;;11.70;7.18;;;;;;;;;;4912807;29;20074;-79
2021/12/22 02:11:32;;;;;;;11.05;6.10;;;;;;;;;;4915662;29;20032;-79
2021/12/22 02:14:21;;;;;;;7.68;4.80;;;;;;;;;;4915493;29;20036;-78
2021/12/22 02:16:47;;;;;;;5.55;3.88;;;;;;;;;;4899622;29;20036;-78
2021/12/22 02:19:16;;;;;;;6.13;3.90;;;;;;;;;;4898996;29;20096;-79
2021/12/22 02:21:48;;;;;;;7.03;4.22;;;;;;;;;;4915009;29;20036;-78
2021/12/22 02:24:15;;;;;;;5.38;3.80;;;;;;;;;;4914912;29;20028;-78
2021/12/22 02:26:50;;;;;;;8.60;5.25;;;;;;;;;;4906567;29;20040;-78
2021/12/22 02:29:20;;;;;;;7.82;4.35;;;;;;;;;;4897159;29;20036;-78
2021/12/22 02:35:13;;;;;;;5.60;3.85;;;;;;;;;;4813804;29;20058;-79
2021/12/22 02:37:48;;;;;;;5.45;3.60;;;;;;;;;;4800687;29;20416;-79
2021/12/22 02:40:17;;;;;;;5.95;3.50;;;;;;;;;;4819179;29;20046;-78
2021/12/22 02:42:47;;;;;;;4.85;3.55;;;;;;;;;;4810435;29;20023;-80
2021/12/22 02:45:15;;;;;;;6.28;4.10;;;;;;;;;;4825125;29;20038;-77
2021/12/22 02:47:41;;;;;;;7.32;4.32;;;;;;;;;;4822465;29;20007;-79
2021/12/22 02:50:18;;;;;;;6.93;4.88;;;;;;;;;;4816551;29;20049;-78
2021/12/22 02:53:11;;;;;;;8.13;4.93;;;;;;;;;;4801860;29;20119;-78
2021/12/22 02:58:35;;;;;;;6.43;4.90;;;;;;;;;;4821579;29;20053;-78
2021/12/22 03:02:16;;;;;;;6.80;4.50;;;;;;;;;;4824551;29;20110;-78
2021/12/22 03:04:09;;;;;;;7.32;4.10;;;;;;;;;;4814292;29;20042;-78
2021/12/22 03:07:05;;;;;;;7.38;3.90;;;;;;;;;;4825512;29;20050;-77
2021/12/22 03:09:33;;;;;;;5.82;3.70;;;;;;;;;;4824687;29;20158;-78
2021/12/22 03:12:02;;;;;;;5.57;3.75;;;;;;;;;;4920942;29;20051;-78
2021/12/22 03:14:32;;;;;;;7.60;4.40;;;;;;;;;;4900407;29;20040;-78
2021/12/22 03:16:59;;;;;;;8.77;4.30;;;;;;;;;;4918067;29;20040;-78
2021/12/22 03:19:26;;;;;;;5.68;3.65;;;;;;;;;;4898355;29;20052;-78
2021/12/22 03:22:00;;;;;;;6.05;3.60;;;;;;;;;;4901187;29;20029;-78
2021/12/22 03:24:29;;;;;;;6.25;4.15;;;;;;;;;;4918357;29;20029;-78
2021/12/22 03:27:01;;;;;;;6.47;3.85;;;;;;;;;;4916946;29;20090;-86
2021/12/22 03:29:35;;;;;;;5.67;3.57;;;;;;;;;;4901512;29;20040;-78
2021/12/22 03:32:08;;;;;;;7.88;3.50;;;;;;;;;;4901755;29;20068;-79
2021/12/22 03:34:38;;;;;;;5.85;3.20;;;;;;;;;;4905495;29;20085;-79
2021/12/22 03:37:05;;;;;;;6.95;3.72;;;;;;;;;;4917467;29;20076;-77
2021/12/22 03:39:34;;;;;;;4.72;3.13;;;;;;;;;;4896613;29;20032;-78
2021/12/22 03:42:00;;;;;;;5.78;3.35;;;;;;;;;;4898134;29;20035;-79
2021/12/22 03:44:36;;;;;;;6.78;3.47;;;;;;;;;;4893373;29;20040;-78
2021/12/22 03:47:02;;;;;;;5.65;3.50;;;;;;;;;;4901708;29;20035;-77
2021/12/22 03:49:29;;;;;;;5.78;3.42;;;;;;;;;;4912661;29;20068;-78
2021/12/22 03:51:55;;;;;;;6.78;3.53;;;;;;;;;;4895037;29;20041;-78
2021/12/22 03:54:21;;;;;;;6.22;3.63;;;;;;;;;;4897891;29;20028;-77
2021/12/22 03:56:49;;;;;;;6.60;3.60;;;;;;;;;;4899879;29;20036;-79
2021/12/22 03:59:16;;;;;;;5.35;3.42;;;;;;;;;;4918405;29;20076;-78
2021/12/22 04:01:42;;;;;;;4.60;3.30;;;;;;;;;;4894421;29;20028;-78
2021/12/22 04:04:13;;;;;;;6.15;3.50;;;;;;;;;;4910969;29;20044;-78
2021/12/22 04:06:43;;;;;;;4.50;3.30;;;;;;;;;;4895815;29;20028;-78
2021/12/22 04:09:38;;;;;;;5.05;3.35;;;;;;;;;;4916337;29;20056;-79
2021/12/22 04:12:31;;;;;;;7.03;3.53;;;;;;;;;;5244432;23;20019;-80
2021/12/22 04:15:18;;;;;;;11.02;4.57;;;;;;;;;;4884932;29;20038;-79
2021/12/22 04:18:17;;;;;;;8.52;4.28;;;;;;;;;;4883406;29;20057;-78
2021/12/22 04:21:13;;;;;;;8.98;4.63;;;;;;;;;;4842656;29;20113;-79
2021/12/22 04:24:10;;;;;;;7.80;4.55;;;;;;;;;;4845568;29;20027;-79
2021/12/22 04:27:17;;;;;;;10.98;4.53;;;;;;;;;;4811795;29;20023;-80
2021/12/22 04:29:50;;;;;;;7.25;5.10;;;;;;;;;;4809829;29;20073;-78
2021/12/22 04:32:23;;;;;;;11.02;5.30;;;;;;;;;;4810959;29;20035;-78
2021/12/22 04:35:11;;;;;;;10.95;4.95;;;;;;;;;;4793766;29;20047;-79
2021/12/22 04:37:39;;;;;;;12.68;5.43;;;;;;;;;;4757230;30;20052;-79
2021/12/22 04:40:07;;;;;;;9.70;4.80;;;;;;;;;;4770167;29;20038;-78
2021/12/22 04:42:33;;;;;;;10.60;5.15;;;;;;;;;;4771272;29;20028;-78
2021/12/22 04:45:03;;;;;;;9.93;5.50;;;;;;;;;;4771582;30;20032;-79
2021/12/22 04:47:47;;;;;;;14.93;5.70;;;;;;;;;;4770684;29;20087;-78
2021/12/22 04:50:17;;;;;;;14.57;6.40;;;;;;;;;;4771480;29;20040;-78
2021/12/22 04:53:03;;;;;;;11.55;5.88;;;;;;;;;;4762109;30;20473;-77
2021/12/22 04:55:30;;;;;;;13.90;6.47;;;;;;;;;;4755370;30;20044;-76
2021/12/22 04:57:57;;;;;;;14.02;5.90;;;;;;;;;;4809852;29;20102;-76
2021/12/22 05:00:26;;;;;;;11.77;5.90;;;;;;;;;;4873487;29;20042;-76
2021/12/22 05:02:55;;;;;;;12.93;6.70;;;;;;;;;;4874160;29;20090;-74
2021/12/22 05:05:21;;;;;;;10.43;6.20;;;;;;;;;;4872344;29;20108;-77
2021/12/22 05:07:48;;;;;;;15.77;7.70;;;;;;;;;;4867662;29;20026;-76
2021/12/22 05:10:15;;;;;;;15.07;7.57;;;;;;;;;;4862501;29;20037;-75
2021/12/22 05:12:41;;;;;;;17.90;8.65;;;;;;;;;;4869999;29;20049;-70
2021/12/22 05:15:12;;;;;;;14.10;7.72;;;;;;;;;;4917460;29;20094;-75
2021/12/22 05:20:05;;;;;;;19.75;9.23;;;;;;;;;;4911237;29;20040;-76
2021/12/22 05:22:32;;;;;;;17.65;8.88;;;;;;;;;;4910311;29;20035;-74
2021/12/22 05:24:59;;;;;;;18.08;9.10;;;;;;;;;;4906339;29;20019;-76
2021/12/22 05:27:29;;;;;;;19.95;9.38;;;;;;;;;;4905863;29;20039;-76
2021/12/22 05:30:01;;;;;;;22.17;9.95;;;;;;;;;;4913530;29;20020;-74
2021/12/22 05:32:31;;;;;;;25.27;10.38;;;;;;;;;;4912206;29;20028;-76
2021/12/22 05:34:59;;;;;;;117.35;53.75;;;;;;;;;;4908575;29;20096;-75
2021/12/22 05:37:34;;;;;;;69.10;34.25;;;;;;;;;;5110340;27;20146;-75
2021/12/22 05:40:00;;;;;;;43.03;18.20;;;;;;;;;;5095991;28;20024;-76
2021/12/22 05:42:27;;;;;;;31.00;13.43;;;;;;;;;;5099519;28;20036;-75
2021/12/22 05:44:53;;;;;;;32.13;13.25;;;;;;;;;;5100639;28;20393;-78
2021/12/22 05:47:21;;;;;;;47.60;15.73;;;;;;;;;;5092311;28;20021;-75
2021/12/22 05:49:49;;;;;;;58.13;17.05;;;;;;;;;;5087861;28;20097;-76
2021/12/22 05:52:15;;;;;;;65.20;17.00;;;;;;;;;;5080067;28;20029;-78
2021/12/22 05:54:41;;;;;;;62.13;18.10;;;;;;;;;;5093909;28;20032;-75
2021/12/22 05:57:07;;;;;;;64.97;17.85;;;;;;;;;;5101528;28;20043;-74
2021/12/22 05:59:33;;;;;;;74.30;19.92;;;;;;;;;;5101604;28;20107;-75
2021/12/22 06:01:59;;;;;;;62.13;17.33;;;;;;;;;;5100836;28;20055;-76
2021/12/22 06:04:25;;;;;;;46.13;15.43;;;;;;;;;;5095863;28;20016;-75
2021/12/22 06:06:51;;;;;;;47.95;16.70;;;;;;;;;;5084387;28;20028;-76
2021/12/22 06:09:17;;;;;;;40.10;19.90;;;;;;;;;;5082675;28;20076;-76
2021/12/22 06:11:43;;;;;;;45.35;22.17;;;;;;;;;;5074709;28;20122;-80
2021/12/22 06:14:09;;;;;;;45.50;22.02;;;;;;;;;;5077664;28;20044;-74
2021/12/22 06:16:36;;;;;;;46.65;20.80;;;;;;;;;;5098116;28;20036;-76
2021/12/22 06:19:08;;;;;;;42.22;21.42;;;;;;;;;;5092107;28;20073;-76
2021/12/22 06:21:35;;;;;;;47.97;21.83;;;;;;;;;;5075314;28;20031;-76
2021/12/22 06:24:01;;;;;;;40.22;20.98;;;;;;;;;;5077378;28;20428;-75
2021/12/22 06:26:28;;;;;;;38.30;20.27;;;;;;;;;;5077902;28;20051;-77
2021/12/22 06:28:54;;;;;;;47.20;21.73;;;;;;;;;;5074702;28;20074;-75
2021/12/22 06:31:20;;;;;;;50.17;21.98;;;;;;;;;;5073881;28;20075;-75
2021/12/22 06:33:47;;;;;;;54.55;28.95;;;;;;;;;;5079077;28;20027;-83
2021/12/22 06:36:15;;;;;;;57.25;30.70;;;;;;;;;;5057729;28;20058;-75
2021/12/22 06:38:41;;;;;;;55.17;32.25;;;;;;;;;;5068035;28;20434;-77
2021/12/22 06:41:07;;;;;;;53.35;29.15;;;;;;;;;;5079511;28;20084;-76
2021/12/22 06:43:33;;;;;;;46.45;26.48;;;;;;;;;;5078518;28;20171;-75
2021/12/22 06:45:59;;;;;;;48.45;25.23;;;;;;;;;;5077642;28;20031;-76
2021/12/22 06:48:27;;;;;;;45.80;25.73;;;;;;;;;;5068081;28;20032;-75
2021/12/22 06:50:53;;;;;;;57.47;26.58;;;;;;;;;;5080775;28;20029;-75
2021/12/22 06:53:19;;;;;;;55.38;27.67;;;;;;;;;;5065390;28;20020;-75
2021/12/22 06:55:49;;;;;;;66.10;30.77;;;;;;;;;;5067759;28;20114;-77
2021/12/22 06:58:15;;;;;;;54.75;30.08;;;;;;;;;;5067873;28;20071;-77
2021/12/22 07:00:43;;;;;;;56.95;29.60;;;;;;;;;;5074914;28;20001;-75
2021/12/22 07:03:12;;;;;;;59.13;30.30;;;;;;;;;;5065322;28;20029;-77
2021/12/22 07:05:38;;;;;;;63.40;33.10;;;;;;;;;;5061874;28;20090;-74
2021/12/22 07:08:06;;;;;;;75.68;37.60;;;;;;;;;;5064780;28;20021;-79
2021/12/22 07:10:33;;;;;;;72.55;34.38;;;;;;;;;;5063193;28;20149;-77
2021/12/22 07:13:00;;;;;;;57.60;32.90;;;;;;;;;;5065848;28;20025;-77
2021/12/22 07:15:26;;;;;;;51.85;29.73;;;;;;;;;;5061434;28;20125;-77
2021/12/22 07:17:56;;;;;;;54.40;30.50;;;;;;;;;;5065934;28;20060;-80
2021/12/22 07:20:28;;;;;;;62.90;31.10;;;;;;;;;;5070296;28;20030;-80
2021/12/22 07:22:57;;;;;;;52.30;30.00;;;;;;;;;;5072783;28;20029;-75
2021/12/22 07:25:30;;;;;;;51.92;30.42;;;;;;;;;;5076049;28;20037;-77
2021/12/22 07:28:10;;;;;;;59.35;36.78;;;;;;;;;;5052942;28;20090;-77
2021/12/22 07:39:05;;;;;;;57.97;29.23;;;;;;;;;;5579054;22;20037;-80
2021/12/22 07:46:51;;;;;;;55.80;33.17;;;;;;;;;;5081481;23;20064;-77
2021/12/22 07:49:25;;;;;;;55.65;32.67;;;;;;;;;;5045045;28;20096;-77
2021/12/22 07:51:55;;;;;;;52.95;32.45;;;;;;;;;;5066712;28;20033;-78
2021/12/22 07:57:38;;;;;;;58.45;33.97;;;;;;;;;;5700825;22;20029;-79
2021/12/22 08:00:12;;;;;;;;;;;;;;;;;;5056382;28;20012;-79
2021/12/22 08:05:38;;;;;;;68.18;36.70;;;;;;;;;;5157499;23;20029;-80
2021/12/22 08:08:29;;;;;;;56.80;35.33;;;;;;;;;;5084046;28;20077;-80
2021/12/22 08:10:59;;;;;;;52.33;33.40;;;;;;;;;;5147120;22;20114;-77
2021/12/22 08:13:32;;;;;;;74.43;40.42;;;;;;;;;;5046659;28;20105;-79
2021/12/22 08:15:59;;;;;;;72.57;40.20;;;;;;;;;;5061224;28;20179;-77
2021/12/22 08:26:13;;;;;;;63.72;33.35;;;;;;;;;;5270845;22;20069;-76
2021/12/22 08:28:39;;;;;;;59.05;33.55;;;;;;;;;;5045752;28;20554;-74
2021/12/22 08:31:05;;;;;;;63.70;33.97;;;;;;;;;;5055675;28;20029;-76
2021/12/22 08:33:37;;;;;;;59.67;33.67;;;;;;;;;;5043578;28;20028;-75
2021/12/22 08:39:11;;;;;;;67.80;33.30;;;;;;;;;;5078004;28;20024;-78
2021/12/22 08:41:47;;;;;;;48.33;30.73;;;;;;;;;;5047257;28;20010;-79
2021/12/22 08:44:18;;;;;;;48.28;28.25;;;;;;;;;;5476345;22;20570;-78
2021/12/22 08:46:48;;;;;;;50.70;27.02;;;;;;;;;;5076627;28;20029;-78
2021/12/22 08:49:35;;;;;;;46.88;27.17;;;;;;;;;;5077960;28;20080;-80
2021/12/22 09:11:15;;;;;;;43.97;25.42;;;;;;;;;;5870843;23;20053;31
2021/12/22 09:16:48;;;;;;;50.70;25.77;;;;;;;;;;4997072;28;20033;-80
2021/12/22 09:20:01;;;;;;;42.03;23.02;;;;;;;;;;5105584;23;20060;-79
2021/12/22 09:22:42;;;;;;;40.23;23.50;;;;;;;;;;5480054;23;20791;31
2021/12/22 09:25:33;;;;;;;40.75;23.13;;;;;;;;;;4970097;29;20070;-79
2021/12/22 09:28:12;;;;;;;42.92;23.55;;;;;;;;;;4965574;28;20096;-78
2021/12/22 09:30:48;;;;;;;38.40;23.95;;;;;;;;;;4967589;29;20531;-79
2021/12/22 09:33:54;;;;;;;43.08;26.13;;;;;;;;;;4985356;28;20038;-80
2021/12/22 09:36:43;;;;;;;43.17;25.15;;;;;;;;;;4966683;28;20028;-78
2021/12/22 09:44:47;;;;;;;45.72;26.38;;;;;;;;;;5028331;23;20062;-78
2021/12/22 09:48:24;;;;;;;45.55;25.70;;;;;;;;;;4913785;29;20048;-78
2021/12/22 09:57:00;;;;;;;50.97;30.60;;;;;;;;;;4861436;29;20093;-78
2021/12/22 09:59:30;;;;;;;60.30;33.20;;;;;;;;;;4863395;29;20109;-79
2021/12/22 10:02:15;;;;;;;58.30;32.10;;;;;;;;;;4866207;29;20048;-78
2021/12/22 10:04:49;;;;;;;69.47;33.97;;;;;;;;;;4877538;29;20089;-78
2021/12/22 10:07:50;;;;;;;56.97;31.50;;;;;;;;;;4881072;29;20026;-79
2021/12/22 10:11:06;;;;;;;61.35;32.45;;;;;;;;;;4863790;29;20038;-79
2021/12/22 10:14:16;;;;;;;56.40;31.52;;;;;;;;;;4811579;29;20094;-78
2021/12/22 10:16:47;;;;;;;56.30;31.05;;;;;;;;;;4797828;29;20069;-79
2021/12/22 10:19:17;;;;;;;47.25;27.83;;;;;;;;;;4842855;29;20107;-78
2021/12/22 10:21:56;;;;;;;59.08;31.67;;;;;;;;;;4827112;29;20126;-77
2021/12/22 10:24:56;;;;;;;50.38;29.15;;;;;;;;;;4834110;29;20051;-78
2021/12/22 10:27:35;;;;;;;52.00;27.92;;;;;;;;;;4832473;29;20034;-79
2021/12/22 10:30:49;;;;;;;45.00;26.90;;;;;;;;;;4834553;29;20045;-79
2021/12/22 10:33:51;;;;;;;46.50;24.93;;;;;;;;;;4831825;29;20022;-79
2021/12/22 10:36:45;;;;;;;65.82;35.58;;;;;;;;;;5232042;23;20051;-78
2021/12/22 10:40:11;;;;;;;128.27;59.38;;;;;;;;;;4922838;29;20534;-80
2021/12/22 10:43:26;;;;;;;53.50;28.40;;;;;;;;;;4904925;29;20044;-80
2021/12/22 10:45:56;;;;;;;43.88;26.73;;;;;;;;;;4903800;29;20419;-79
2021/12/22 10:49:17;;;;;;;47.60;28.17;;;;;;;;;;4901523;29;20025;-80
2021/12/22 10:51:54;;;;;;;50.05;28.88;;;;;;;;;;4813489;29;20042;-77
2021/12/22 10:54:33;;;;;;;55.60;29.23;;;;;;;;;;4827019;29;20039;-80
2021/12/22 10:57:03;;;;;;;47.60;27.67;;;;;;;;;;4842421;29;20076;-79
2021/12/22 10:59:42;;;;;;;57.67;28.25;;;;;;;;;;4812397;29;20050;-79
2021/12/22 11:02:16;;;;;;;47.13;27.25;;;;;;;;;;4827478;29;20122;-78
2021/12/22 11:04:45;;;;;;;45.17;27.92;;;;;;;;;;4824010;29;20449;-76
2021/12/22 11:07:29;;;;;;;53.47;30.23;;;;;;;;;;4826803;29;20026;-79
2021/12/22 11:10:18;;;;;;;47.35;27.95;;;;;;;;;;4829350;29;20042;-79
2021/12/22 11:12:44;;;;;;;48.42;28.25;;;;;;;;;;4807938;29;20051;-73
2021/12/22 11:15:23;;;;;;;45.58;27.00;;;;;;;;;;4810351;29;20059;-80
2021/12/22 11:17:55;;;;;;;39.92;24.23;;;;;;;;;;4822401;29;20058;-79
2021/12/22 11:20:46;;;;;;;41.97;24.42;;;;;;;;;;4825706;29;20051;-79
2021/12/22 11:23:29;;;;;;;37.35;23.13;;;;;;;;;;4817735;29;20036;-76
2021/12/22 11:25:56;;;;;;;36.10;22.60;;;;;;;;;;4847072;29;20041;-75
2021/12/22 11:28:24;;;;;;;41.33;23.63;;;;;;;;;;4853499;29;20037;-77
2021/12/22 11:30:53;;;;;;;38.80;21.67;;;;;;;;;;4852555;29;20034;-76
2021/12/22 11:33:23;;;;;;;36.47;22.45;;;;;;;;;;4863891;29;20073;-76
2021/12/22 11:36:05;;;;;;;40.05;23.48;;;;;;;;;;4873437;29;20053;-77
2021/12/22 11:38:32;;;;;;;33.13;20.45;;;;;;;;;;4876267;29;20038;-76
2021/12/22 11:41:16;;;;;;;35.28;20.08;;;;;;;;;;4875764;29;20047;-77
2021/12/22 11:43:43;;;;;;;42.23;22.93;;;;;;;;;;4888033;29;20112;-75
2021/12/22 11:46:16;;;;;;;57.15;29.98;;;;;;;;;;4892896;29;20112;-76
2021/12/22 11:48:46;;;;;;;101.13;43.87;;;;;;;;;;4895188;29;20029;-75
2021/12/22 11:51:28;;;;;;;49.67;26.98;;;;;;;;;;4888138;29;20138;-77
2021/12/22 11:53:56;;;;;;;36.00;18.08;;;;;;;;;;4879783;29;20029;-76
2021/12/22 11:56:57;;;;;;;38.25;18.52;;;;;;;;;;4880898;29;20045;-76
2021/12/22 11:59:34;;;;;;;31.70;14.98;;;;;;;;;;4893584;29;20078;-77
2021/12/22 12:02:20;;;;;;;32.13;13.70;;;;;;;;;;4895822;29;20044;-78
2021/12/22 12:48:32;;;;;;;26.13;13.30;;;;;;;;;;5224975;23;20057;-76
2021/12/22 13:09:44;;;;;;;17.40;10.15;;;;;;;;;;5378846;23;20941;-77
2021/12/22 13:18:04;;;;;;;17.52;10.27;;;;;;;;;;4888761;29;20072;-78
2021/12/22 13:20:34;;;;;;;21.38;11.20;;;;;;;;;;4877838;29;20032;-76
2021/12/22 13:23:02;;;;;;;17.73;10.48;;;;;;;;;;4895179;29;20040;-77
2021/12/22 13:25:52;;;;;;;17.77;10.63;;;;;;;;;;4886017;29;20060;-74
2021/12/22 13:28:18;;;;;;;16.77;10.07;;;;;;;;;;4865143;29;20045;-76
2021/12/22 13:30:54;;;;;;;14.52;9.32;;;;;;;;;;4870775;29;20025;-76
2021/12/22 13:33:34;;;;;;;13.48;8.75;;;;;;;;;;4872803;29;20033;-78
2021/12/22 13:36:12;;;;;;;20.70;9.77;;;;;;;;;;4857874;29;20042;-74
2021/12/22 13:38:54;;;;;;;18.00;10.40;;;;;;;;;;4861863;29;20850;-75
2021/12/22 13:41:21;;;;;;;19.63;10.50;;;;;;;;;;4853121;29;20033;-75
2021/12/22 13:43:57;;;;;;;20.88;11.02;;;;;;;;;;4884959;29;20022;-78
2021/12/22 13:46:28;;;;;;;21.85;10.82;;;;;;;;;;4868589;29;20611;-74
2021/12/22 13:51:40;;;;;;;21.45;12.27;;;;;;;;;;5255902;23;20079;-75
2021/12/22 13:54:20;;;;;;;20.55;10.43;;;;;;;;;;4884915;29;20085;-74
2021/12/22 13:56:48;;;;;;;19.02;10.40;;;;;;;;;;4886522;29;20502;-77
2021/12/22 13:59:15;;;;;;;20.42;10.85;;;;;;;;;;4888434;29;20048;-77
2021/12/22 14:01:44;;;;;;;30.83;10.65;;;;;;;;;;4888002;29;20025;-74
2021/12/22 14:04:29;;;;;;;18.88;9.98;;;;;;;;;;4891166;29;20464;-74
2021/12/22 14:07:21;;;;;;;17.73;9.73;;;;;;;;;;4891237;29;20066;-78
2021/12/22 14:10:09;;;;;;;29.85;10.57;;;;;;;;;;4886879;29;20036;-78
2021/12/22 14:12:35;;;;;;;15.97;9.07;;;;;;;;;;4886847;29;20028;-78
2021/12/22 14:15:02;;;;;;;17.27;9.38;;;;;;;;;;4893770;29;20107;-78
2021/12/22 14:17:34;;;;;;;21.48;9.82;;;;;;;;;;4892567;29;20044;-78
2021/12/22 14:20:07;;;;;;;15.63;9.32;;;;;;;;;;4891177;29;20021;-79
2021/12/22 14:22:49;;;;;;;22.98;11.20;;;;;;;;;;4901879;29;20049;-80
2021/12/22 14:25:33;;;;;;;23.40;9.65;;;;;;;;;;4900153;29;20017;-80
2021/12/22 14:28:24;;;;;;;20.77;10.05;;;;;;;;;;4896895;29;20087;-79
2021/12/22 14:30:51;;;;;;;17.52;8.88;;;;;;;;;;4882871;29;20041;-74
2021/12/22 14:33:30;;;;;;;20.98;10.52;;;;;;;;;;4871198;29;20026;-79
2021/12/22 14:35:58;;;;;;;15.27;8.30;;;;;;;;;;4861038;29;20033;-79
2021/12/22 14:38:49;;;;;;;22.13;9.55;;;;;;;;;;4891639;29;20044;-80
2021/12/22 14:41:44;;;;;;;15.70;8.85;;;;;;;;;;4859451;29;20033;-79
2021/12/22 14:44:33;;;;;;;23.02;9.90;;;;;;;;;;4883462;29;20041;-80
2021/12/22 14:47:16;;;;;;;24.27;10.32;;;;;;;;;;4865767;29;20034;-79
2021/12/22 14:50:06;;;;;;;24.38;10.48;;;;;;;;;;4876892;29;20037;-80
2021/12/22 14:52:56;;;;;;;21.67;10.45;;;;;;;;;;4903824;29;20089;-79
2021/12/22 14:55:49;;;;;;;17.90;9.90;;;;;;;;;;4865896;29;20045;-79
2021/12/22 14:58:17;;;;;;;23.25;10.63;;;;;;;;;;4864362;29;20048;-79
2021/12/22 15:00:49;;;;;;;27.05;11.73;;;;;;;;;;4878739;29;20041;-80
2021/12/22 15:03:27;;;;;;;31.33;16.27;;;;;;;;;;4881677;29;20022;-79
2021/12/22 15:05:59;;;;;;;48.08;29.10;;;;;;;;;;4883473;29;20161;-78
2021/12/22 15:08:27;;;;;;;49.90;21.92;;;;;;;;;;4875950;29;20049;-79
2021/12/22 15:11:15;;;;;;;39.75;19.38;;;;;;;;;;4882363;29;20049;-80
2021/12/22 15:14:03;;;;;;;35.10;19.13;;;;;;;;;;4878643;29;20033;-79
2021/12/22 15:16:53;;;;;;;42.17;15.90;;;;;;;;;;4877184;29;20033;-79
2021/12/22 15:19:42;;;;;;;49.95;25.92;;;;;;;;;;4878558;29;20027;-80
2021/12/22 15:22:10;;;;;;;29.25;17.33;;;;;;;;;;4823820;29;20071;-78
2021/12/22 15:24:37;;;;;;;28.63;14.32;;;;;;;;;;4819779;29;20591;-78
2021/12/22 15:27:03;;;;;;;30.40;13.98;;;;;;;;;;4818765;29;20065;-75
2021/12/22 15:29:31;;;;;;;26.58;13.48;;;;;;;;;;4819227;29;20106;-78
2021/12/22 15:32:00;;;;;;;26.80;14.02;;;;;;;;;;4814988;29;20504;-78
2021/12/22 15:34:31;;;;;;;39.40;15.75;;;;;;;;;;4841832;29;20034;-78
2021/12/22 15:37:01;;;;;;;29.17;14.55;;;;;;;;;;4834407;29;20574;-76
2021/12/22 15:39:29;;;;;;;34.28;17.98;;;;;;;;;;4832257;29;20041;-76
2021/12/22 15:41:55;;;;;;;41.70;22.27;;;;;;;;;;4805176;29;20035;-77
2021/12/22 15:53:30;;;;;;;47.42;21.17;;;;;;;;;;5679814;23;20033;-79
2021/12/22 15:59:22;;;;;;;42.83;22.50;;;;;;;;;;4905280;29;20035;-79
2021/12/22 16:02:01;;;;;;;57.72;25.65;;;;;;;;;;4894157;29;20033;-79
2021/12/22 16:04:49;;;;;;;42.65;22.58;;;;;;;;;;4871288;29;20029;-78
2021/12/22 16:07:21;;;;;;;40.17;21.98;;;;;;;;;;4884200;29;20026;-78
2021/12/22 16:09:48;;;;;;;38.58;20.70;;;;;;;;;;4889002;29;20025;-78
2021/12/22 16:12:35;;;;;;;40.58;20.80;;;;;;;;;;4899251;29;20037;-80
2021/12/22 16:15:07;;;;;;;40.72;24.10;;;;;;;;;;4882556;29;20009;-76
2021/12/22 16:17:50;;;;;;;36.03;18.45;;;;;;;;;;4889760;29;20499;-78
2021/12/22 16:20:18;;;;;;;26.08;14.93;;;;;;;;;;4891972;29;20394;-77
2021/12/22 16:22:52;;;;;;;38.45;17.45;;;;;;;;;;4888282;29;20148;-78
2021/12/22 16:25:23;;;;;;;33.50;18.45;;;;;;;;;;4879772;29;20044;-79
2021/12/22 16:27:52;;;;;;;40.93;19.63;;;;;;;;;;4896003;29;20435;-75
2021/12/22 16:30:34;;;;;;;;;;;;;;;;;;4891717;29;20037;-79
2021/12/22 16:33:03;;;;;;;42.25;21.15;;;;;;;;;;4896410;29;19936;-78
2021/12/22 16:35:35;;;;;;;40.25;20.30;;;;;;;;;;4885568;29;20038;-85
2021/12/22 16:38:02;;;;;;;39.90;21.70;;;;;;;;;;4890352;29;20518;-77
2021/12/22 16:40:36;;;;;;;44.95;23.52;;;;;;;;;;4884122;29;20040;-78
2021/12/22 16:43:02;;;;;;;48.20;26.70;;;;;;;;;;4897983;29;20054;-79
2021/12/22 16:45:29;;;;;;;71.35;36.60;;;;;;;;;;4891171;29;20029;-75
2021/12/22 16:47:57;;;;;;;81.65;39.60;;;;;;;;;;4884657;29;20057;-78
2021/12/22 16:50:26;;;;;;;65.22;35.80;;;;;;;;;;4893780;29;20056;-76
2021/12/22 16:52:53;;;;;;;66.00;33.30;;;;;;;;;;4890157;29;20048;-75
2021/12/22 16:55:22;;;;;;;59.53;31.73;;;;;;;;;;4886786;29;20064;-73
2021/12/22 16:57:52;;;;;;;58.58;30.88;;;;;;;;;;4891051;29;20036;-72
2021/12/22 17:00:57;;;;;;;63.38;32.20;;;;;;;;;;4852800;29;20036;-74
2021/12/22 17:03:25;;;;;;;61.75;31.27;;;;;;;;;;4853068;29;20050;-75
2021/12/22 17:05:51;;;;;;;59.08;33.70;;;;;;;;;;4835854;29;20121;-75
2021/12/22 17:08:24;;;;;;;54.65;31.70;;;;;;;;;;4852060;29;20042;-75
2021/12/22 17:10:50;;;;;;;62.05;31.38;;;;;;;;;;4832499;29;20041;-75
2021/12/22 17:13:18;;;;;;;66.35;34.08;;;;;;;;;;4847049;29;20030;-75
2021/12/22 17:16:00;;;;;;;55.17;31.45;;;;;;;;;;4849261;29;20044;-75
2021/12/22 17:18:26;;;;;;;59.55;32.50;;;;;;;;;;4846822;29;20484;-75
2021/12/22 17:20:52;;;;;;;50.60;28.58;;;;;;;;;;4840849;29;20546;-74
2021/12/22 17:23:18;;;;;;;47.78;25.73;;;;;;;;;;4839545;29;20065;-74
2021/12/22 17:25:44;;;;;;;51.75;27.30;;;;;;;;;;4833706;29;20041;-74
2021/12/22 17:28:12;;;;;;;49.03;28.17;;;;;;;;;;4852600;29;20539;-75
2021/12/22 17:30:38;;;;;;;51.05;28.98;;;;;;;;;;4842867;29;20492;-76
2021/12/22 17:33:05;;;;;;;47.80;26.85;;;;;;;;;;4848012;29;20116;-76
2021/12/22 17:35:31;;;;;;;59.03;26.50;;;;;;;;;;4840630;29;20045;-75
2021/12/22 17:37:59;;;;;;;55.97;26.60;;;;;;;;;;4841094;29;20057;-76
2021/12/22 17:40:26;;;;;;;49.97;26.70;;;;;;;;;;4837267;29;20519;-75
2021/12/22 17:42:53;;;;;;;59.67;29.83;;;;;;;;;;4848200;29;20040;-76
2021/12/22 17:45:20;;;;;;;49.90;29.60;;;;;;;;;;4873449;29;20056;-73
2021/12/22 17:47:47;;;;;;;45.67;24.45;;;;;;;;;;4879100;29;20033;-77